.
WxDataArchive / Data Records for 2006-10-18
2006-10-17 October 2006 2006-10-19

Data Records for Wednesday, 18 October 2006

Time	Temp	Chill	HIndex	Humid	Dewpt	 Wind 	HiWind	WindDir	Rain 	Barom 
-----	----	-----	------	-----	-----	------	------	-------	-----	----- 
00:00	54.1	54.1	54.1	84	49.4	0	1	248	0.00	29.751 
00:05	54.1	54.1	54.1	84	49.4	0	2	248	0.00	29.751 
00:10	54.2	54.2	54.2	84	49.5	0	2	248	0.00	29.751 
00:15	54.2	54.2	54.2	84	49.5	0	2	248	0.00	29.751 
00:20	54.2	54.2	54.2	84	49.5	0	1	248	0.00	29.751 
00:25	54.2	54.2	54.2	85	49.8	0	2	248	0.00	29.751 
00:30	54.2	54.2	54.2	85	49.8	0	2	248	0.00	29.758 
00:35	54.2	54.2	54.2	85	49.8	0	1	248	0.00	29.758 
00:40	54.2	54.2	54.2	85	49.8	0	1	248	0.00	29.758 
00:45	54.2	54.2	54.2	85	49.8	0	1	248	0.00	29.763 
00:50	54.2	54.2	54.2	85	49.8	0	2	248	0.00	29.763 
00:55	54.4	54.4	54.4	84	49.7	0	2	248	0.00	29.763 
01:00	54.4	54.4	54.4	84	49.7	1	2	248	0.00	29.765 
01:05	54.4	54.4	54.4	84	49.7	0	2	248	0.00	29.765 
01:10	54.4	54.4	54.4	84	49.7	0	1	248	0.00	29.765 
01:15	54.4	54.4	54.4	85	50.0	0	0	---	0.00	29.768 
01:20	54.4	54.4	54.4	85	50.0	0	0	---	0.00	29.768 
01:25	54.2	54.2	54.2	85	49.8	0	1	248	0.00	29.768 
01:30	54.2	54.2	54.2	86	50.1	0	1	248	0.00	29.770 
01:35	54.2	54.2	54.2	86	50.1	0	1	248	0.00	29.770 
01:40	54.2	54.2	54.2	86	50.1	0	2	248	0.00	29.770 
01:45	54.2	54.2	54.2	86	50.1	0	0	---	0.00	29.776 
01:50	54.2	54.2	54.2	86	50.1	0	1	248	0.00	29.776 
01:55	54.2	54.2	54.2	86	50.1	0	1	248	0.00	29.776 
02:00	54.1	54.1	54.1	87	50.3	0	0	---	0.00	29.778 
02:05	54.1	54.1	54.1	87	50.3	0	1	248	0.00	29.778 
02:10	54.1	54.1	54.1	87	50.3	0	1	248	0.00	29.778 
02:15	54.1	54.1	54.1	87	50.3	0	1	248	0.00	29.780 
02:20	54.1	54.1	54.1	87	50.3	0	1	248	0.00	29.780 
02:25	54.1	54.1	54.1	87	50.3	0	1	248	0.00	29.780 
02:30	54.1	54.1	54.1	88	50.6	0	1	248	0.00	29.780 
02:35	54.1	54.1	54.1	88	50.6	0	1	248	0.00	29.780 
02:40	53.9	53.9	53.9	88	50.4	0	1	248	0.00	29.780 
02:45	53.9	53.9	53.9	88	50.4	0	1	248	0.00	29.776 
02:50	53.9	53.9	53.9	88	50.4	0	0	---	0.00	29.776 
02:55	53.9	53.9	53.9	88	50.4	0	0	---	0.00	29.776 
03:00	53.9	53.9	53.9	89	50.7	0	1	248	0.00	29.778 
03:05	53.9	53.9	53.9	89	50.7	0	0	---	0.00	29.778 
03:10	53.9	53.9	53.9	89	50.7	0	0	---	0.00	29.778 
03:15	53.9	53.9	53.9	89	50.7	0	1	248	0.00	29.782 
03:20	53.9	53.9	53.9	89	50.7	0	1	248	0.00	29.782 
03:25	53.9	53.9	53.9	89	50.7	0	2	248	0.00	29.782 
03:30	53.9	53.9	53.9	90	51.0	0	1	248	0.00	29.784 
03:35	53.9	53.9	53.9	90	51.0	0	1	248	0.00	29.784 
03:40	53.9	53.9	53.9	90	51.0	0	1	248	0.00	29.784 
03:45	54.1	54.1	54.1	90	51.2	0	1	248	0.00	29.787 
03:50	54.1	54.1	54.1	90	51.2	0	1	248	0.00	29.787 
03:55	54.1	54.1	54.1	90	51.2	0	1	248	0.00	29.787 
04:00	54.1	54.1	54.1	91	51.5	0	1	248	0.00	29.786 
04:05	54.2	54.2	54.2	91	51.6	0	1	248	0.00	29.786 
04:10	54.2	54.2	54.2	91	51.6	0	1	248	0.00	29.786 
04:15	54.2	54.2	54.2	91	51.6	0	1	248	0.00	29.785 
04:20	54.2	54.2	54.2	91	51.6	0	1	248	0.00	29.785 
04:25	54.2	54.2	54.2	91	51.6	0	1	248	0.00	29.785 
04:30	54.2	54.2	54.2	92	51.9	0	1	248	0.00	29.783 
04:35	54.2	54.2	54.2	92	51.9	0	1	248	0.00	29.783 
04:40	54.1	54.1	54.1	92	51.8	0	1	248	0.00	29.783 
04:45	54.1	54.1	54.1	92	51.8	0	1	248	0.00	29.783 
04:50	54.1	54.1	54.1	92	51.8	0	1	248	0.00	29.783 
04:55	54.2	54.2	54.2	92	51.9	0	1	248	0.00	29.783 
05:00	54.2	54.2	54.2	92	51.9	0	2	248	0.00	29.787 
05:05	54.2	54.2	54.2	92	51.9	0	1	248	0.00	29.787 
05:10	54.2	54.2	54.2	92	51.9	0	2	248	0.00	29.787 
05:15	54.2	54.2	54.2	92	51.9	0	2	248	0.00	29.791 
05:20	54.4	54.4	54.4	92	52.1	0	1	248	0.00	29.791 
05:25	54.4	54.4	54.4	92	52.1	0	3	248	0.00	29.791 
05:30	54.4	54.4	54.4	92	52.1	0	3	248	0.00	29.794 
05:35	54.4	54.4	54.4	92	52.1	0	1	248	0.00	29.794 
05:40	54.4	54.4	54.4	92	52.1	0	2	248	0.00	29.794 
05:45	54.4	54.4	54.4	92	52.1	0	1	248	0.00	29.789 
05:50	54.4	54.4	54.4	92	52.1	0	3	248	0.00	29.789 
05:55	54.5	54.5	54.5	92	52.2	0	2	248	0.00	29.789 
06:00	54.5	54.5	54.5	92	52.2	0	1	248	0.00	29.795 
06:05	54.5	54.5	54.5	92	52.2	0	1	248	0.00	29.795 
06:10	54.5	54.5	54.5	92	52.2	0	1	248	0.00	29.795 
06:15	54.5	54.5	54.5	92	52.2	0	1	248	0.00	29.799 
06:20	54.5	54.5	54.5	92	52.2	0	1	248	0.00	29.799 
06:25	54.5	54.5	54.5	92	52.2	0	1	248	0.00	29.799 
06:30	54.5	54.5	54.5	92	52.2	0	1	248	0.00	29.799 
06:35	54.5	54.5	54.5	93	52.5	0	1	248	0.00	29.799 
06:40	54.5	54.5	54.5	93	52.5	0	1	248	0.00	29.799 
06:45	54.5	54.5	54.5	93	52.5	0	1	248	0.00	29.804 
06:50	54.5	54.5	54.5	93	52.5	0	1	248	0.00	29.804 
06:55	54.5	54.5	54.5	93	52.5	0	2	248	0.00	29.804 
07:00	54.5	54.5	54.5	93	52.5	0	2	248	0.00	29.810 
07:05	54.5	54.5	54.5	93	52.5	0	1	248	0.00	29.810 
07:10	54.5	54.5	54.5	93	52.5	0	1	248	0.00	29.810 
07:15	54.7	54.7	54.7	93	52.7	1	3	248	0.00	29.813 
07:20	54.7	54.7	54.7	93	52.7	0	1	248	0.00	29.813 
07:25	54.7	54.7	54.7	93	52.7	0	1	248	0.00	29.813 
07:30	54.7	54.7	54.7	93	52.7	0	1	248	0.00	29.816 
07:35	54.7	54.7	54.7	93	52.7	0	2	248	0.00	29.816 
07:40	54.7	54.7	54.7	93	52.7	0	1	248	0.00	29.816 
07:45	54.8	54.8	54.8	93	52.8	0	2	248	0.00	29.817 
07:50	54.8	54.8	54.8	93	52.8	0	1	248	0.00	29.817 
07:55	54.8	54.8	54.8	93	52.8	0	2	248	0.00	29.817 
08:00	54.8	54.8	54.8	93	52.8	0	2	248	0.00	29.824 
08:05	54.8	54.8	54.8	93	52.8	0	1	248	0.00	29.824 
08:10	54.8	54.8	54.8	93	52.8	0	1	248	0.00	29.824 
08:15	54.8	54.8	54.8	93	52.8	0	3	248	0.00	29.826 
08:20	54.8	54.8	54.8	93	52.8	0	2	248	0.00	29.826 
08:25	55.0	55.0	55.0	93	53.0	0	2	248	0.00	29.826 
08:30	55.0	55.0	55.0	93	53.0	0	3	248	0.00	29.826 
08:35	55.0	55.0	55.0	93	53.0	0	1	248	0.00	29.826 
08:40	55.0	55.0	55.0	93	53.0	0	1	248	0.00	29.826 
08:45	55.1	55.1	55.1	93	53.1	0	2	248	0.00	29.830 
08:50	55.1	55.1	55.1	93	53.1	0	2	248	0.00	29.830 
08:55	55.1	55.1	55.1	93	53.1	0	2	248	0.00	29.830 
09:00	55.3	55.3	55.3	93	53.3	0	3	248	0.00	29.835 
09:05	55.3	55.3	55.3	93	53.3	0	2	248	0.00	29.835 
09:10	55.3	55.3	55.3	93	53.3	0	1	248	0.00	29.835 
09:15	55.4	55.4	55.4	93	53.4	0	3	248	0.00	29.837 
09:20	55.4	55.4	55.4	93	53.4	0	1	248	0.00	29.837 
09:25	55.6	55.6	55.6	93	53.6	0	2	248	0.00	29.837 
09:30	55.6	55.6	55.6	93	53.6	1	3	270	0.00	29.836 
09:35	55.7	55.7	55.7	93	53.7	1	2	270	0.00	29.836 
09:40	55.7	55.7	55.7	92	53.4	1	2	248	0.00	29.836 
09:45	55.9	55.9	55.9	92	53.6	1	2	248	0.00	29.840 
09:50	56.0	56.0	56.0	92	53.7	1	3	248	0.00	29.840 
09:55	56.2	56.2	56.2	92	53.9	1	2	248	0.00	29.840 
10:00	56.3	56.3	56.3	92	54.0	0	1	248	0.00	29.841 
10:05	56.5	56.5	56.5	92	54.2	1	3	248	0.00	29.841 
10:10	56.5	56.5	56.5	92	54.2	0	3	248	0.00	29.841 
10:15	56.6	56.6	56.6	91	54.0	1	3	248	0.00	29.841 
10:20	56.7	56.7	56.7	91	54.1	0	3	248	0.00	29.841 
10:25	57.0	57.0	57.0	91	54.4	0	2	248	0.00	29.841 
10:30	57.2	57.2	57.2	90	54.3	1	5	248	0.00	29.843 
10:35	57.3	57.3	57.3	90	54.4	0	2	248	0.00	29.843 
10:40	57.5	57.5	57.5	89	54.3	1	4	248	0.00	29.843 
10:45	57.6	57.6	57.6	89	54.4	0	2	248	0.00	29.843 
10:50	58.0	58.0	58.0	88	54.5	0	2	248	0.00	29.843 
10:55	58.1	58.1	58.1	88	54.6	1	4	248	0.00	29.843 
11:00	58.3	58.3	58.3	88	54.8	1	3	292	0.00	29.844 
11:05	58.6	58.6	58.6	87	54.7	0	2	292	0.00	29.844 
11:10	58.9	58.9	58.9	86	54.7	1	4	248	0.00	29.844 
11:15	58.9	58.9	58.9	85	54.4	1	5	270	0.00	29.845 
11:20	59.2	59.2	59.2	86	55.0	1	3	248	0.00	29.845 
11:25	59.3	59.3	59.3	85	54.8	1	3	225	0.00	29.845 
11:30	59.5	59.5	59.5	84	54.7	1	3	270	0.00	29.845 
11:35	59.6	59.6	59.6	84	54.8	1	3	225	0.00	29.845 
11:40	59.6	59.6	59.6	84	54.8	2	7	270	0.00	29.845 
11:45	59.8	59.8	59.8	84	55.0	1	4	248	0.00	29.844 
11:50	59.9	59.9	59.9	84	55.0	1	4	248	0.00	29.844 
11:55	60.1	60.1	60.1	84	55.2	1	4	270	0.00	29.844 
12:00	60.2	60.2	60.2	83	55.0	1	4	248	0.00	29.844 
12:05	60.4	60.4	60.4	84	55.5	2	5	248	0.00	29.844 
12:10	60.5	60.5	60.5	84	55.6	0	1	248	0.00	29.844 
12:15	60.7	60.7	60.7	82	55.2	1	4	248	0.00	29.842 
12:20	61.0	61.0	61.0	84	56.1	0	2	248	0.00	29.842 
12:25	61.3	61.3	61.3	82	55.8	1	3	270	0.00	29.842 
12:30	61.5	61.5	61.5	82	55.9	1	4	270	0.00	29.838 
12:35	61.8	61.8	61.8	80	55.6	1	4	90	0.00	29.838 
12:40	62.0	62.0	62.0	81	56.1	1	3	90	0.00	29.838 
12:45	62.1	62.1	62.1	79	55.5	1	3	90	0.00	29.830 
12:50	62.3	62.3	62.3	80	56.0	1	5	90	0.00	29.830 
12:55	62.4	62.4	62.4	81	56.5	1	3	248	0.00	29.830 
13:00	62.6	62.6	62.6	78	55.6	2	6	248	0.00	29.825 
13:05	62.6	62.6	62.6	77	55.3	2	7	248	0.00	29.825 
13:10	62.7	62.7	62.7	77	55.4	1	4	270	0.00	29.825 
13:15	62.9	62.9	62.9	77	55.6	1	7	112	0.00	29.821 
13:20	63.1	63.1	63.1	77	55.8	2	5	90	0.00	29.821 
13:25	62.9	62.9	62.9	76	55.2	2	6	45	0.00	29.821 
13:30	62.7	62.7	62.7	75	54.7	2	7	248	0.00	29.821 
13:35	62.7	62.7	62.7	77	55.4	1	4	248	0.00	29.821 
13:40	63.1	63.1	63.1	75	55.0	2	7	270	0.00	29.821 
13:45	63.2	63.2	63.2	73	54.4	2	5	248	0.00	29.809 
13:50	63.5	63.5	63.5	74	55.1	2	6	270	0.00	29.809 
13:55	64.0	64.0	64.0	73	55.2	1	3	292	0.00	29.809 
14:00	64.0	64.0	64.0	72	54.8	1	3	22	0.00	29.813 
14:05	63.9	63.9	63.9	72	54.7	1	4	248	0.00	29.813 
14:10	63.4	63.4	63.4	71	53.8	2	6	248	0.00	29.813 
14:15	63.1	63.1	63.1	74	54.7	2	6	270	0.00	29.811 
14:20	63.1	63.1	63.1	72	53.9	2	5	248	0.00	29.811 
14:25	62.9	62.9	62.9	72	53.7	3	5	270	0.00	29.811 
14:30	62.9	62.9	62.9	71	53.3	2	6	270	0.00	29.809 
14:35	62.9	62.9	62.9	72	53.7	3	11	248	0.00	29.809 
14:40	62.9	62.9	62.9	73	54.1	2	5	248	0.00	29.809 
14:45	62.9	62.9	62.9	72	53.7	2	6	270	0.00	29.807 
14:50	63.1	63.1	63.1	73	54.3	0	3	248	0.00	29.807 
14:55	63.1	63.1	63.1	72	53.9	1	4	90	0.00	29.807 
15:00	63.1	63.1	63.1	72	53.9	1	3	248	0.00	29.802 
15:05	63.1	63.1	63.1	72	53.9	1	6	270	0.00	29.802 
15:10	62.9	62.9	62.9	71	53.3	1	4	270	0.00	29.802 
15:15	62.9	62.9	62.9	69	52.6	2	6	248	0.00	29.805 
15:20	62.6	62.6	62.6	69	52.3	2	6	270	0.00	29.805 
15:25	62.6	62.6	62.6	71	53.1	1	3	270	0.00	29.805 
15:30	62.4	62.4	62.4	71	52.9	1	4	248	0.00	29.799 
15:35	62.6	62.6	62.6	72	53.4	1	3	270	0.00	29.799 
15:40	62.6	62.6	62.6	73	53.8	1	4	45	0.00	29.799 
15:45	62.6	62.6	62.6	71	53.1	1	5	248	0.00	29.795 
15:50	62.7	62.7	62.7	72	53.5	1	4	248	0.00	29.795 
15:55	62.7	62.7	62.7	71	53.2	1	4	248	0.00	29.795 
16:00	62.7	62.7	62.7	70	52.8	2	5	248	0.00	29.794 
16:05	62.6	62.6	62.6	72	53.4	1	5	270	0.00	29.794 
16:10	62.6	62.6	62.6	72	53.4	1	3	270	0.00	29.794 
16:15	62.6	62.6	62.6	73	53.8	0	2	270	0.00	29.793 
16:20	62.4	62.4	62.4	73	53.6	1	7	248	0.00	29.793 
16:25	62.3	62.3	62.3	73	53.5	1	4	315	0.00	29.793 
16:30	62.1	62.1	62.1	73	53.3	1	5	90	0.00	29.792 
16:35	62.1	62.1	62.1	74	53.7	1	3	270	0.00	29.792 
16:40	62.1	62.1	62.1	74	53.7	1	2	270	0.00	29.792 
16:45	62.3	62.3	62.3	74	53.9	1	4	270	0.00	29.792 
16:50	62.4	62.4	62.4	74	54.0	0	2	270	0.00	29.792 
16:55	62.6	62.6	62.6	74	54.2	1	4	68	0.00	29.792 
17:00	62.7	62.7	62.7	75	54.7	0	2	315	0.00	29.786 
17:05	62.7	62.7	62.7	73	53.9	1	3	270	0.00	29.786 
17:10	62.6	62.6	62.6	74	54.2	0	2	270	0.00	29.786 
17:15	62.7	62.7	62.7	75	54.7	1	3	90	0.00	29.786 
17:20	62.7	62.7	62.7	76	55.0	1	3	90	0.00	29.786 
17:25	62.7	62.7	62.7	75	54.7	0	1	90	0.00	29.786 
17:30	62.7	62.7	62.7	76	55.0	0	2	90	0.00	29.784 
17:35	62.6	62.6	62.6	76	54.9	0	2	180	0.00	29.784 
17:40	62.4	62.4	62.4	77	55.1	0	2	180	0.00	29.784 
17:45	62.3	62.3	62.3	77	55.0	0	1	180	0.00	29.785 
17:50	62.3	62.3	62.3	77	55.0	0	1	180	0.00	29.785 
17:55	62.1	62.1	62.1	77	54.8	0	1	180	0.00	29.785 
18:00	62.1	62.1	62.1	77	54.8	0	2	158	0.00	29.781 
18:05	62.1	62.1	62.1	77	54.8	0	1	158	0.00	29.781 
18:10	62.1	62.1	62.1	78	55.2	0	2	158	0.00	29.781 
18:15	62.1	62.1	62.1	78	55.2	1	2	135	0.00	29.770 
18:20	62.1	62.1	62.1	77	54.8	0	1	135	0.00	29.770 
18:25	62.0	62.0	62.0	78	55.1	0	1	135	0.00	29.770 
18:30	61.6	61.6	61.6	79	55.0	0	3	225	0.00	29.776 
18:35	61.5	61.5	61.5	79	54.9	0	1	225	0.00	29.776 
18:40	61.3	61.3	61.3	79	54.7	0	1	225	0.00	29.776 
18:45	61.2	61.2	61.2	79	54.6	0	0	---	0.00	29.774 
18:50	60.9	60.9	60.9	80	54.7	0	1	225	0.00	29.774 
18:55	60.7	60.7	60.7	81	54.8	0	1	225	0.00	29.774 
19:00	60.4	60.4	60.4	81	54.5	0	1	225	0.00	29.766 
19:05	60.2	60.2	60.2	81	54.3	0	1	225	0.00	29.766 
19:10	60.1	60.1	60.1	82	54.6	0	1	225	0.00	29.766 
19:15	59.8	59.8	59.8	82	54.3	0	0	---	0.00	29.764 
19:20	59.5	59.5	59.5	83	54.3	0	0	---	0.00	29.764 
19:25	59.2	59.2	59.2	84	54.4	0	0	---	0.00	29.764 
19:30	58.9	58.9	58.9	84	54.1	0	0	---	0.00	29.765 
19:35	58.7	58.7	58.7	85	54.2	0	0	---	0.00	29.765 
19:40	58.7	58.7	58.7	85	54.2	0	0	---	0.00	29.765 
19:45	58.6	58.6	58.6	86	54.4	0	0	---	0.00	29.766 
19:50	58.7	58.7	58.7	86	54.5	0	0	---	0.00	29.766 
19:55	58.7	58.7	58.7	86	54.5	0	0	---	0.00	29.766 
20:00	58.7	58.7	58.7	87	54.8	0	0	---	0.00	29.763 
20:05	58.7	58.7	58.7	87	54.8	0	1	225	0.00	29.763 
20:10	58.9	58.9	58.9	86	54.7	0	1	225	0.00	29.763 
20:15	59.0	59.0	59.0	86	54.8	0	1	225	0.00	29.762 
20:20	59.2	59.2	59.2	86	55.0	0	1	225	0.00	29.762 
20:25	59.3	59.3	59.3	86	55.1	0	1	158	0.00	29.762 
20:30	59.3	59.3	59.3	85	54.8	1	3	112	0.00	29.761 
20:35	59.5	59.5	59.5	85	55.0	0	1	90	0.00	29.761 
20:40	59.5	59.5	59.5	85	55.0	0	2	90	0.00	29.761 
20:45	59.6	59.6	59.6	84	54.8	0	2	135	0.00	29.763 
20:50	59.6	59.6	59.6	84	54.8	0	2	135	0.00	29.763 
20:55	59.6	59.6	59.6	84	54.8	0	2	135	0.00	29.763 
21:00	59.6	59.6	59.6	84	54.8	0	2	135	0.00	29.761 
21:05	59.6	59.6	59.6	84	54.8	0	2	135	0.00	29.761 
21:10	59.6	59.6	59.6	84	54.8	0	2	135	0.00	29.761 
21:15	59.6	59.6	59.6	84	54.8	0	2	135	0.00	29.753 
21:20	59.6	59.6	59.6	84	54.8	1	3	135	0.00	29.753 
21:25	59.6	59.6	59.6	84	54.8	0	3	112	0.00	29.753 
21:30	59.6	59.6	59.6	84	54.8	0	2	112	0.00	29.755 
21:35	59.6	59.6	59.6	84	54.8	0	2	112	0.00	29.755 
21:40	59.6	59.6	59.6	84	54.8	0	1	112	0.00	29.755 
21:45	59.6	59.6	59.6	84	54.8	0	1	112	0.00	29.758 
21:50	59.6	59.6	59.6	84	54.8	0	1	112	0.00	29.758 
21:55	59.5	59.5	59.5	84	54.7	0	2	112	0.00	29.758 
22:00	59.5	59.5	59.5	84	54.7	0	1	112	0.00	29.756 
22:05	59.5	59.5	59.5	84	54.7	0	2	112	0.00	29.756 
22:10	59.5	59.5	59.5	84	54.7	0	2	112	0.00	29.756 
22:15	59.5	59.5	59.5	84	54.7	0	1	112	0.00	29.749 
22:20	59.6	59.6	59.6	84	54.8	0	2	112	0.00	29.749 
22:25	59.6	59.6	59.6	84	54.8	0	2	112	0.00	29.749 
22:30	59.6	59.6	59.6	84	54.8	0	2	112	0.00	29.750 
22:35	59.6	59.6	59.6	84	54.8	0	1	112	0.00	29.750 
22:40	59.6	59.6	59.6	84	54.8	0	4	270	0.00	29.750 
22:45	59.8	59.8	59.8	84	55.0	0	3	270	0.00	29.748 
22:50	59.8	59.8	59.8	84	55.0	0	2	90	0.00	29.748 
22:55	59.8	59.8	59.8	84	55.0	0	2	248	0.00	29.748 
23:00	59.8	59.8	59.8	84	55.0	1	3	248	0.00	29.744 
23:05	59.8	59.8	59.8	84	55.0	1	3	248	0.00	29.744 
23:10	59.8	59.8	59.8	85	55.3	1	3	270	0.00	29.744 
23:15	59.8	59.8	59.8	85	55.3	1	4	248	0.00	29.742 
23:20	59.8	59.8	59.8	85	55.3	1	6	292	0.00	29.742 
23:25	59.8	59.8	59.8	85	55.3	1	4	248	0.00	29.742 
23:30	59.8	59.8	59.8	85	55.3	1	4	248	0.00	29.742 
23:35	59.8	59.8	59.8	85	55.3	1	3	248	0.00	29.742 
23:40	59.8	59.8	59.8	85	55.3	0	2	248	0.00	29.742 
23:45	59.8	59.8	59.8	86	55.6	0	2	248	0.00	29.736 
23:50	59.6	59.6	59.6	86	55.4	0	2	248	0.00	29.736 
23:55	59.6	59.6	59.6	86	55.4	1	4	270	0.00	29.736 

CoCoRaHS
IN-AL-39
A2 Web Hosting
Creative Commons License
GoDaddy
Look for:

loaded 2017-12-10 21:27:51 • last modified 2010-11-18 10:43:29
Privacy PolicyDisclaimer
• wx.awcolley.com is powered by PmWiki v.2002016 •
• all content (unless otherwise noted) © 2017 A W Colley